Flight Track Log - Related Links

Times and Time Zones

All times are in EDT time to prevent confusion due to time zone crossing. See the RAX500 flight status page for this flight to view local times or setup timezone preferences in your user account.

Time Position Orientation Groundspeed Altitude Reporting Facility
EDT Latitude Longitude Course Direction KTS MPH feet Rate Location/Type
Wed 01:18:44 PM 39.5739 -89.0850 70° East 286 329 9,200  Level Chicago Center
Wed 01:19:46 PM 39.6150 -88.9653 66° East 339 390 9,400 381 Climbing Chicago Center
Wed 01:20:50 PM 39.6678 -88.8308 63° Northeast 346 398 10,000 1,333 Climbing Kansas City Center
Wed 01:21:52 PM 39.7153 -88.7125 62° Northeast 365 420 12,200 2,256 Climbing Kansas City Center
Wed 01:22:55 PM 39.7608 -88.5914 64° Northeast 374 430 14,700 2,323 Climbing Kansas City Center
Wed 01:23:56 PM 39.8058 -88.4706 64° Northeast 374 430 17,000 2,352 Climbing Kansas City Center
Wed 01:24:00 PM 39.9044 -88.3014 70° East  Level FlightAware Approximate
Wed 01:25:00 PM 39.8514 -88.3461 64° Northeast 378 435 19,600  Level Kansas City Center
Wed 01:26:01 PM 39.9061 -88.2006 64° Northeast 376 433 22,600 1,727 Climbing Kansas City Center
Wed 01:27:12 PM 39.9625 -88.0486 64° Northeast 387 445 23,400 1,038 Climbing Chicago Center
Wed 01:28:14 PM 40.0139 -87.9133 64° Northeast 413 475 24,900 1,452 Climbing Chicago Center
Wed 01:29:16 PM 40.0672 -87.7647 65° Northeast 413 475 26,400 1,403 Climbing Chicago Center
Wed 01:30:18 PM 40.1147 -87.6275 66° East 418 481 27,800 1,452 Climbing Chicago Center
Wed 01:31:20 PM 40.1669 -87.4942 63° Northeast 415 478 29,400 1,536 Climbing Chicago Center
Wed 01:32:23 PM 40.2139 -87.3644 65° Northeast 402 463 31,000 1,488 Climbing Chicago Center
Wed 01:33:25 PM 40.2614 -87.2353 64° Northeast 397 457 32,500 1,355 Climbing Chicago Center
Wed 01:34:27 PM 40.3206 -87.0728 64° Northeast 415 478 33,800 1,065 Climbing Chicago Center
Wed 01:35:29 PM 40.3725 -86.9336 64° Northeast 424 488 34,700 581 Climbing Chicago Center
Wed 01:36:31 PM 40.4242 -86.7867 65° Northeast 439 505 35,000 145 Climbing Chicago Center
Wed 01:37:33 PM 40.4764 -86.6386 65° Northeast 450 518 35,000  Level Chicago Center
Wed 01:38:35 PM 40.5489 -86.4994 56° Northeast 463 533 35,000  Level Chicago Center
Wed 01:39:37 PM 40.6233 -86.3661 54° Northeast 456 525 35,000 -145 Level Chicago Center
Wed 01:40:39 PM 40.7094 -86.2008 55° Northeast 457 526 34,700 -528 Descending Chicago Center
Wed 01:41:42 PM 40.7808 -86.0625 56° Northeast 459 528 33,900 -1,632 Descending Chicago Center
Wed 01:42:44 PM 40.8519 -85.9261 55° Northeast 455 524 31,300 -3,387 Descending Chicago Center
Wed 01:43:46 PM 40.9250 -85.7844 56° Northeast 465 535 26,900 -3,387 Descending Chicago Center
Wed 01:44:48 PM 40.9992 -85.6417 55° Northeast 472 543 24,300 -2,516 Descending Chicago Center
Wed 01:45:50 PM 41.0806 -85.4856 55° Northeast 435 501 21,700 -1,597 Descending Chicago Center
Wed 01:46:52 PM 41.1464 -85.3578 56° Northeast 426 490 21,000 -339 Descending Chicago Center
Wed 01:47:54 PM 41.2153 -85.2244 55° Northeast 435 501 21,000  Level Chicago Center
Wed 01:48:56 PM 41.2917 -85.0928 52° Northeast 455 524 21,000  Level Chicago Center
Wed 01:49:58 PM 41.3997 -85.0314 23° Northeast 428 493 21,000  Level Chicago Center
Wed 01:51:01 PM 41.5336 -84.9772 17° North 424 488 21,000 -288 Level Chicago Center
Wed 01:52:03 PM 41.6414 -84.9331 17° North 412 474 20,400 -1,016 Descending Chicago Center
Wed 01:53:05 PM 41.7358 -84.8717 26° Northeast 393 452 18,900 -2,371 Descending Chicago Center
Wed 01:54:07 PM 41.7906 -84.7225 64° Northeast 451 519 15,500 -2,565 Descending Chicago Center
Wed 01:55:09 PM 41.8497 -84.5367 67° East 447 514 13,600 -1,645 Descending Chicago Center
Wed 01:56:11 PM 41.8953 -84.3881 68° East 436 502 12,100 -1,333 Descending Chicago Center
Wed 01:56:30 PM 41.9089 -84.3417 68° East 413 475 11,800 -1,147 Descending Cleveland Center
Wed 01:57:19 PM 41.9392 -84.2403 68° East 392 451 10,800 -1,101 Descending Cleveland Center
Wed 01:58:19 PM 41.9692 -84.1442 67° East 338 389 9,800 -525 Descending Cleveland Center
Wed 01:58:39 PM 41.9953 -84.1122 42° Northeast 293 337 10,100 -100 Climbing Cleveland Center
Wed 01:59:19 PM 42.0381 -84.0781 31° Northeast 276 318 9,700 -984 Descending Cleveland Center
Wed 01:59:40 PM 42.0694 -84.0714 North 300 345 9,100 -1,600 Descending Cleveland Center
Wed 02:00:19 PM 42.1186 -84.0378 27° Northeast 288 331 8,100 -1,527 Descending Cleveland Center
Wed 02:00:35 PM 42.1394 -84.0306 14° North 300 345 7,700 -1,475 Descending Cleveland Center
Wed 02:01:20 PM 42.1947 -83.9969 24° Northeast 288 331 6,600 -1,377 Descending Cleveland Center
Wed 02:01:36 PM 42.2158 -83.9897 14° North 276 318 6,300 -1,700 Descending Cleveland Center
Wed 02:02:20 PM 42.2667 -83.9617 22° Northeast 278 320 4,900 -1,967 Descending Cleveland Center
Wed 02:02:37 PM 42.2878 -83.9514 20° North 271 312 4,300 -900 Descending Cleveland Center
Wed 02:03:20 PM 42.3347 -83.9203 26° Northeast 273 314 4,000 -194 Descending Cleveland Center
Wed 02:03:39 PM 42.3600 -83.9075 20° North 266 306 4,100 -70 Climbing Cleveland Center
Wed 02:04:46 PM 42.4325 -83.8522 29° Northeast 281 323 3,900 -422 Descending Cleveland Center
Wed 02:05:47 PM 42.4967 -83.7908 35° Northeast 266 306 3,200 -414 Descending Cleveland Center
Wed 02:06:42 PM 42.5503 -83.7372 36° Northeast 260 299 3,100  Descending Cleveland Center
Wed 02:07:49 PM 42.6169 -83.6700 37° Northeast 276 318 3,200  Climbing Cleveland Center
Wed 02:08:51 PM 42.6319 -83.5719 78° East 270 311 3,100 -279 Descending Cleveland Center
Wed 02:09:58 PM 42.6264 -83.4586 94° East 237 273 2,600 -469 Descending Cleveland Center
Wed 02:10:59 PM 42.6283 -83.3856 88° East 190 219 2,100 -517 Descending Cleveland Center
Wed 02:11:54 PM 42.6639 -83.3786 North 151 174 1,600 -545 Descending Cleveland Center

Login

Don't have an account? Register now (free) for customized features, flight alerts, and more!